Time,TemperatureF,DewpointF,PressureIn,WindDirection,WindDirectionDegrees,WindSpeedMPH,WindSpeedGustMPH,Humidity,HourlyPrecipIn,Conditions,Clouds,dailyrainin,SoftwareType,DateUTC
2013-10-28 00:08:00,41.0,38.0,29.93,South,180,0.0,-999.0,89,-99.99,,,0.00,Acu-Link.com,2013-10-28 04:08:00,
2013-10-28 00:23:00,41.4,38.4,29.95,South,180,0.0,-999.0,89,-99.99,,,0.00,Acu-Link.com,2013-10-28 04:23:00,
2013-10-28 00:38:00,41.5,38.5,29.93,South,180,0.0,-999.0,89,-99.99,,,0.00,Acu-Link.com,2013-10-28 04:38:00,
2013-10-28 00:54:00,42.4,39.7,29.94,South,180,2.7,-999.0,90,-99.99,,,0.00,Acu-Link.com,2013-10-28 04:54:00,
2013-10-28 01:09:00,44.1,40.5,29.93,SSW,202,2.7,-999.0,87,-99.99,,,0.00,Acu-Link.com,2013-10-28 05:09:00,
2013-10-28 01:24:00,44.1,39.6,29.94,ESE,112,1.7,-999.0,84,-99.99,,,0.00,Acu-Link.com,2013-10-28 05:24:00,
2013-10-28 01:39:00,44.1,39.6,29.93,WSW,247,0.0,-999.0,84,-99.99,,,0.00,Acu-Link.com,2013-10-28 05:39:00,
2013-10-28 01:54:00,44.4,39.6,29.94,ESE,112,2.7,-999.0,83,-99.99,,,0.00,Acu-Link.com,2013-10-28 05:54:00,
2013-10-28 02:10:00,44.2,39.4,29.94,South,180,1.1,-999.0,83,-99.99,,,0.00,Acu-Link.com,2013-10-28 06:10:00,
2013-10-28 02:25:00,44.1,39.6,29.93,WSW,247,0.0,-999.0,84,-99.99,,,0.00,Acu-Link.com,2013-10-28 06:25:00,
2013-10-28 02:40:00,44.1,39.9,29.94,SSE,157,2.7,-999.0,85,-99.99,,,0.00,Acu-Link.com,2013-10-28 06:40:00,
2013-10-28 02:55:00,44.4,40.2,29.94,WSW,247,1.1,-999.0,85,-99.99,,,0.00,Acu-Link.com,2013-10-28 06:55:00,
2013-10-28 03:10:00,44.6,40.4,29.93,South,180,0.0,-999.0,85,-99.99,,,0.00,Acu-Link.com,2013-10-28 07:10:00,
2013-10-28 03:25:00,44.2,40.3,29.93,SW,225,0.0,-999.0,86,-99.99,,,0.00,Acu-Link.com,2013-10-28 07:25:00,
2013-10-28 03:40:00,43.2,39.9,29.95,West,270,0.0,-999.0,88,-99.99,,,0.00,Acu-Link.com,2013-10-28 07:40:00,
2013-10-28 03:55:00,43.5,40.8,29.96,SW,225,0.0,-999.0,90,-99.99,,,0.00,Acu-Link.com,2013-10-28 07:55:00,
2013-10-28 04:10:00,44.6,40.7,29.94,West,270,0.0,-999.0,86,-99.99,,,0.00,Acu-Link.com,2013-10-28 08:10:00,
2013-10-28 04:26:00,45.5,39.7,29.95,West,270,1.1,-999.0,80,-99.99,,,0.00,Acu-Link.com,2013-10-28 08:26:00,
2013-10-28 04:41:00,45.7,39.2,29.95,ENE,67,1.1,-999.0,78,-99.99,,,0.00,Acu-Link.com,2013-10-28 08:41:00,
2013-10-28 04:56:00,46.2,38.7,29.97,WNW,292,3.2,-999.0,75,-99.99,,,0.00,Acu-Link.com,2013-10-28 08:56:00,
2013-10-28 05:11:00,46.4,38.2,29.96,WNW,292,4.2,-999.0,73,-99.99,,,0.00,Acu-Link.com,2013-10-28 09:11:00,
2013-10-28 05:26:00,45.7,38.2,29.97,WNW,292,0.0,-999.0,75,-99.99,,,0.00,Acu-Link.com,2013-10-28 09:26:00,
2013-10-28 05:41:00,44.8,37.7,29.98,West,270,0.0,-999.0,76,-99.99,,,0.00,Acu-Link.com,2013-10-28 09:41:00,
2013-10-28 05:57:00,44.8,38.0,30.00,West,270,0.0,-999.0,77,-99.99,,,0.00,Acu-Link.com,2013-10-28 09:57:00,
2013-10-28 06:12:00,44.2,37.8,30.01,West,270,0.0,-999.0,78,-99.99,,,0.00,Acu-Link.com,2013-10-28 10:12:00,
2013-10-28 06:27:00,44.1,38.0,30.01,WNW,292,0.0,-999.0,79,-99.99,,,0.00,Acu-Link.com,2013-10-28 10:27:00,
2013-10-28 06:42:00,43.7,37.6,30.01,West,270,0.0,-999.0,79,-99.99,,,0.00,Acu-Link.com,2013-10-28 10:42:00,
2013-10-28 06:58:00,43.0,37.6,30.03,West,270,0.0,-999.0,81,-99.99,,,0.00,Acu-Link.com,2013-10-28 10:58:00,
2013-10-28 07:13:00,42.1,37.0,30.02,WSW,247,1.7,-999.0,82,-99.99,,,0.00,Acu-Link.com,2013-10-28 11:13:00,
2013-10-28 07:28:00,41.7,37.2,30.03,WSW,247,0.0,-999.0,84,-99.99,,,0.00,Acu-Link.com,2013-10-28 11:28:00,
2013-10-28 07:44:00,41.7,37.2,30.03,WSW,247,0.0,-999.0,84,-99.99,,,0.00,Acu-Link.com,2013-10-28 11:44:00,
2013-10-28 07:59:00,42.4,37.9,30.04,WNW,292,0.0,-999.0,84,-99.99,,,0.00,Acu-Link.com,2013-10-28 11:59:00,
2013-10-28 08:14:00,42.8,38.3,30.05,NW,315,0.0,-999.0,84,-99.99,,,0.00,Acu-Link.com,2013-10-28 12:14:00,
2013-10-28 08:29:00,43.0,38.8,30.06,NW,315,0.0,-999.0,85,-99.99,,,0.00,Acu-Link.com,2013-10-28 12:29:00,
2013-10-28 08:45:00,43.5,39.3,30.07,WSW,247,0.0,-999.0,85,-99.99,,,0.00,Acu-Link.com,2013-10-28 12:45:00,
2013-10-28 09:00:00,44.4,40.5,30.09,West,270,0.0,-999.0,86,-99.99,,,0.00,Acu-Link.com,2013-10-28 13:00:00,
2013-10-28 09:15:00,45.5,41.3,30.09,WNW,292,0.0,-999.0,85,-99.99,,,0.00,Acu-Link.com,2013-10-28 13:15:00,
2013-10-28 09:30:00,47.5,42.6,30.10,NNE,22,0.0,-999.0,83,-99.99,,,0.00,Acu-Link.com,2013-10-28 13:30:00,
2013-10-28 09:46:00,48.2,42.6,30.12,North,0,2.2,-999.0,81,-99.99,,,0.00,Acu-Link.com,2013-10-28 13:46:00,
2013-10-28 10:01:00,49.6,43.4,30.11,NW,315,3.2,-999.0,79,-99.99,,,0.00,Acu-Link.com,2013-10-28 14:01:00,
2013-10-28 10:16:00,50.5,42.9,30.12,ESE,112,3.2,-999.0,75,-99.99,,,0.00,Acu-Link.com,2013-10-28 14:16:00,
2013-10-28 10:32:00,48.0,41.8,30.12,WNW,292,7.3,-999.0,79,-99.99,,,0.00,Acu-Link.com,2013-10-28 14:32:00,
2013-10-28 10:47:00,49.5,43.3,30.13,NE,45,4.7,-999.0,79,-99.99,,,0.00,Acu-Link.com,2013-10-28 14:47:00,
2013-10-28 11:02:00,49.1,43.2,30.14,North,0,2.7,-999.0,80,-99.99,,,0.00,Acu-Link.com,2013-10-28 15:02:00,
2013-10-28 11:17:00,47.8,42.3,30.14,NNW,337,5.8,-999.0,81,-99.99,,,0.00,Acu-Link.com,2013-10-28 15:17:00,
2013-10-28 11:33:00,49.1,41.9,30.15,NE,45,2.7,-999.0,76,-99.99,,,0.00,Acu-Link.com,2013-10-28 15:33:00,
2013-10-28 11:48:00,49.5,42.3,30.16,ESE,112,2.7,-999.0,76,-99.99,,,0.00,Acu-Link.com,2013-10-28 15:48:00,
2013-10-28 12:03:00,47.3,40.8,30.16,ENE,67,4.2,-999.0,78,-99.99,,,0.00,Acu-Link.com,2013-10-28 16:03:00,
2013-10-28 12:19:00,48.6,40.7,30.17,ENE,67,3.2,-999.0,74,-99.99,,,0.00,Acu-Link.com,2013-10-28 16:19:00,
2013-10-28 12:34:00,49.3,40.7,30.17,ESE,112,3.2,-999.0,72,-99.99,,,0.00,Acu-Link.com,2013-10-28 16:34:00,
2013-10-28 12:49:00,48.4,39.8,30.17,West,270,2.7,-999.0,72,-99.99,,,0.00,Acu-Link.com,2013-10-28 16:49:00,
2013-10-28 13:04:00,48.6,39.6,30.17,East,90,4.7,-999.0,71,-99.99,,,0.00,Acu-Link.com,2013-10-28 17:04:00,
2013-10-28 13:19:00,48.7,39.0,30.18,WNW,292,2.7,-999.0,69,-99.99,,,0.00,Acu-Link.com,2013-10-28 17:19:00,
2013-10-28 13:34:00,49.5,39.0,30.17,NNW,337,4.2,-999.0,67,-99.99,,,0.00,Acu-Link.com,2013-10-28 17:34:00,
2013-10-28 13:49:00,48.7,36.7,30.17,NNW,337,2.7,-999.0,63,-99.99,,,0.00,Acu-Link.com,2013-10-28 17:49:00,
2013-10-28 14:04:00,50.4,36.6,30.17,NW,315,2.2,-999.0,59,-99.99,,,0.00,Acu-Link.com,2013-10-28 18:04:00,
2013-10-28 14:20:00,49.6,35.0,30.18,WNW,292,1.1,-999.0,57,-99.99,,,0.00,Acu-Link.com,2013-10-28 18:20:00,
2013-10-28 14:35:00,49.5,34.0,30.18,NNW,337,4.2,-999.0,55,-99.99,,,0.00,Acu-Link.com,2013-10-28 18:35:00,
2013-10-28 14:50:00,48.9,34.3,30.18,East,90,2.7,-999.0,57,-99.99,,,0.00,Acu-Link.com,2013-10-28 18:50:00,
2013-10-28 15:05:00,50.0,33.1,30.19,ESE,112,3.7,-999.0,52,-99.99,,,0.00,Acu-Link.com,2013-10-28 19:05:00,
2013-10-28 15:20:00,49.3,32.9,30.19,WNW,292,3.7,-999.0,53,-99.99,,,0.00,Acu-Link.com,2013-10-28 19:20:00,
2013-10-28 15:35:00,48.6,31.3,30.19,NNW,337,4.2,-999.0,51,-99.99,,,0.00,Acu-Link.com,2013-10-28 19:35:00,
2013-10-28 15:50:00,48.7,29.9,30.21,NW,315,1.7,-999.0,48,-99.99,,,0.00,Acu-Link.com,2013-10-28 19:50:00,
2013-10-28 16:05:00,48.4,32.1,30.21,NW,315,2.7,-999.0,53,-99.99,,,0.00,Acu-Link.com,2013-10-28 20:05:00,
2013-10-28 16:21:00,47.3,32.0,30.22,NNW,337,2.7,-999.0,55,-99.99,,,0.00,Acu-Link.com,2013-10-28 20:21:00,
2013-10-28 16:36:00,46.8,33.2,30.22,NNW,337,1.7,-999.0,59,-99.99,,,0.00,Acu-Link.com,2013-10-28 20:36:00,
2013-10-28 16:51:00,46.0,32.1,30.22,East,90,2.2,-999.0,58,-99.99,,,0.00,Acu-Link.com,2013-10-28 20:51:00,
2013-10-28 17:06:00,45.5,31.6,30.23,NW,315,2.7,-999.0,58,-99.99,,,0.00,Acu-Link.com,2013-10-28 21:06:00,
2013-10-28 17:21:00,44.4,28.8,30.24,North,0,3.7,-999.0,54,-99.99,,,0.00,Acu-Link.com,2013-10-28 21:21:00,
2013-10-28 17:37:00,43.5,28.0,30.23,NW,315,2.7,-999.0,54,-99.99,,,0.00,Acu-Link.com,2013-10-28 21:37:00,
2013-10-28 17:52:00,42.3,27.3,30.24,ESE,112,0.0,-999.0,55,-99.99,,,0.00,Acu-Link.com,2013-10-28 21:52:00,
2013-10-28 18:07:00,41.2,27.1,30.24,NW,315,1.7,-999.0,57,-99.99,,,0.00,Acu-Link.com,2013-10-28 22:07:00,
2013-10-28 18:22:00,40.1,26.9,30.24,NW,315,0.0,-999.0,59,-99.99,,,0.00,Acu-Link.com,2013-10-28 22:22:00,
2013-10-28 18:38:00,38.8,26.9,30.25,NNW,337,0.0,-999.0,62,-99.99,,,0.00,Acu-Link.com,2013-10-28 22:38:00,
2013-10-28 18:53:00,37.4,26.7,30.25,NNE,22,0.0,-999.0,65,-99.99,,,0.00,Acu-Link.com,2013-10-28 22:53:00,
2013-10-28 19:08:00,35.8,25.6,30.26,WSW,247,0.0,-999.0,66,-99.99,,,0.00,Acu-Link.com,2013-10-28 23:08:00,
2013-10-28 19:24:00,34.7,25.6,30.26,West,270,0.0,-999.0,69,-99.99,,,0.00,Acu-Link.com,2013-10-28 23:24:00,
2013-10-28 19:39:00,33.6,25.2,30.26,SW,225,0.0,-999.0,71,-99.99,,,0.00,Acu-Link.com,2013-10-28 23:39:00,
2013-10-28 19:54:00,32.7,24.4,30.27,SSW,202,0.0,-999.0,71,-99.99,,,0.00,Acu-Link.com,2013-10-28 23:54:00,
2013-10-28 20:10:00,32.2,25.8,30.26,North,0,0.0,-999.0,77,-99.99,,,0.00,Acu-Link.com,2013-10-29 00:10:00,
2013-10-28 20:25:00,31.6,25.8,30.27,North,0,0.0,-999.0,79,-99.99,,,0.00,Acu-Link.com,2013-10-29 00:25:00,
2013-10-28 20:40:00,31.3,25.9,30.27,North,0,0.0,-999.0,80,-99.99,,,0.00,Acu-Link.com,2013-10-29 00:40:00,
2013-10-28 20:55:00,30.7,25.6,30.28,NNE,22,0.0,-999.0,81,-99.99,,,0.00,Acu-Link.com,2013-10-29 00:55:00,
2013-10-28 21:10:00,30.2,25.4,30.29,NNE,22,0.0,-999.0,82,-99.99,,,0.00,Acu-Link.com,2013-10-29 01:10:00,
2013-10-28 21:26:00,30.4,26.7,30.30,NNW,337,0.0,-999.0,86,-99.99,,,0.00,Acu-Link.com,2013-10-29 01:26:00,
2013-10-28 21:41:00,30.0,26.3,30.29,NNE,22,0.0,-999.0,86,-99.99,,,0.00,Acu-Link.com,2013-10-29 01:41:00,
2013-10-28 21:56:00,29.8,26.4,30.29,West,270,0.0,-999.0,87,-99.99,,,0.00,Acu-Link.com,2013-10-29 01:56:00,
2013-10-28 22:11:00,29.5,26.1,30.30,West,270,0.0,-999.0,87,-99.99,,,0.00,Acu-Link.com,2013-10-29 02:11:00,
2013-10-28 22:26:00,29.3,25.9,30.30,North,0,0.0,-999.0,87,-99.99,,,0.00,Acu-Link.com,2013-10-29 02:26:00,
2013-10-28 22:41:00,28.9,25.5,30.30,North,0,0.0,-999.0,87,-99.99,,,0.00,Acu-Link.com,2013-10-29 02:41:00,
2013-10-28 22:57:00,28.4,25.3,30.30,North,0,0.0,-999.0,88,-99.99,,,0.00,Acu-Link.com,2013-10-29 02:57:00,
2013-10-28 23:12:00,28.0,24.9,30.30,NNE,22,0.0,-999.0,88,-99.99,,,0.00,Acu-Link.com,2013-10-29 03:12:00,
2013-10-28 23:27:00,27.9,24.8,30.31,West,270,0.0,-999.0,88,-99.99,,,0.00,Acu-Link.com,2013-10-29 03:27:00,
2013-10-28 23:43:00,27.9,25.1,30.30,West,270,0.0,-999.0,89,-99.99,,,0.00,Acu-Link.com,2013-10-29 03:43:00,
2013-10-28 23:58:00,27.5,24.7,30.30,South,180,0.0,-999.0,89,-99.99,,,0.00,Acu-Link.com,2013-10-29 03:58:00,